createdAt,value
2018-09-08T00:00:35.628Z,22.89
2018-09-08T00:01:45.705Z,22.92
2018-09-08T00:02:55.761Z,22.91
2018-09-08T00:04:05.838Z,22.97
2018-09-08T00:05:15.913Z,22.96
2018-09-08T00:06:26.029Z,22.92
2018-09-08T00:07:35.845Z,23.01
2018-09-08T00:08:45.939Z,22.86
2018-09-08T00:09:56.065Z,22.97
2018-09-08T00:11:05.873Z,22.94
2018-09-08T00:12:16.028Z,22.92
2018-09-08T00:13:26.103Z,22.89
2018-09-08T00:14:36.170Z,22.89
2018-09-08T00:15:46.240Z,22.85
2018-09-08T00:16:55.798Z,22.88
2018-09-08T00:18:05.915Z,22.89
2018-09-08T00:19:15.990Z,22.88
2018-09-08T00:20:26.043Z,22.89
2018-09-08T00:21:36.108Z,22.92
2018-09-08T00:22:45.922Z,22.86
2018-09-08T00:23:56.038Z,22.86
2018-09-08T00:25:05.880Z,22.89
2018-09-08T00:26:15.937Z,22.82
2018-09-08T00:27:26.027Z,22.76
2018-09-08T00:28:35.857Z,22.78
2018-09-08T00:29:45.968Z,22.81
2018-09-08T00:30:56.057Z,22.78
2018-09-08T00:32:05.869Z,22.81
2018-09-08T00:33:15.948Z,22.79
2018-09-08T00:34:26.018Z,22.76
2018-09-08T00:35:36.153Z,22.78
2018-09-08T00:36:46.223Z,22.79
2018-09-08T00:37:56.291Z,22.75
2018-09-08T00:39:06.404Z,22.71
2018-09-08T00:40:16.468Z,22.7
2018-09-08T00:41:26.536Z,22.71
2018-09-08T00:42:36.618Z,22.75
2018-09-08T00:43:46.702Z,22.7
2018-09-08T00:44:56.771Z,22.73
2018-09-08T00:46:06.585Z,22.69
2018-09-08T00:47:16.230Z,22.75
2018-09-08T00:48:26.061Z,22.69
2018-09-08T00:49:36.126Z,22.73
2018-09-08T00:50:46.193Z,22.7
2018-09-08T00:51:56.267Z,22.71
2018-09-08T00:53:06.343Z,22.75
2018-09-08T00:54:16.428Z,22.71
2018-09-08T00:55:26.491Z,22.73
2018-09-08T00:56:36.298Z,22.67
2018-09-08T00:57:46.363Z,22.7
2018-09-08T00:58:55.903Z,22.73
2018-09-08T01:00:05.443Z,22.64
2018-09-08T01:01:15.506Z,22.69
2018-09-08T01:02:25.575Z,22.67
2018-09-08T01:03:35.413Z,22.63
2018-09-08T01:04:45.613Z,22.63
2018-09-08T01:05:55.691Z,22.71
2018-09-08T01:07:05.780Z,22.73
2018-09-08T01:08:15.574Z,22.67
2018-09-08T01:09:25.628Z,22.7
2018-09-08T01:10:35.211Z,22.7
2018-09-08T01:11:45.008Z,22.7
2018-09-08T01:12:54.805Z,22.71
2018-09-08T01:14:04.370Z,22.66
2018-09-08T01:15:14.454Z,22.69
2018-09-08T01:16:24.260Z,22.64
2018-09-08T01:17:34.317Z,22.7
2018-09-08T01:18:44.368Z,22.67
2018-09-08T01:19:54.181Z,22.55
2018-09-08T01:21:04.258Z,22.59
2018-09-08T01:22:14.313Z,22.55
2018-09-08T01:23:23.847Z,22.51
2018-09-08T01:24:33.391Z,22.52
2018-09-08T01:25:43.199Z,22.55
2018-09-08T01:26:53.253Z,22.44
2018-09-08T01:28:03.324Z,22.39
2018-09-08T01:29:13.653Z,22.44
2018-09-08T01:30:23.706Z,22.42
2018-09-08T01:31:33.781Z,22.41
2018-09-08T01:32:43.843Z,22.33
2018-09-08T01:33:53.967Z,22.34
2018-09-08T01:35:04.049Z,22.39
2018-09-08T01:36:14.132Z,22.31
2018-09-08T01:37:24.196Z,22.31
2018-09-08T01:38:34.029Z,22.23
2018-09-08T01:39:43.891Z,22.29
2018-09-08T01:40:53.680Z,22.14
2018-09-08T01:42:03.777Z,22.29
2018-09-08T01:43:13.578Z,22.18
2018-09-08T01:44:23.391Z,22.26
2018-09-08T01:45:33.252Z,22.26
2018-09-08T01:46:43.325Z,22.15
2018-09-08T01:47:53.141Z,22.2
2018-09-08T01:49:03.345Z,22.22
2018-09-08T01:50:13.414Z,22.12
2018-09-08T01:51:23.476Z,22.16
2018-09-08T01:52:33.537Z,22.2
2018-09-08T01:53:43.675Z,22.11
2018-09-08T01:54:53.477Z,22
2018-09-08T01:56:03.558Z,22.07
2018-09-08T01:57:13.432Z,22.08
2018-09-08T01:58:23.524Z,22.08
2018-09-08T01:59:33.589Z,22.05
2018-09-08T02:00:43.647Z,21.93
2018-09-08T02:01:53.728Z,21.97
2018-09-08T02:03:03.835Z,22.04
2018-09-08T02:04:13.915Z,21.97
2018-09-08T02:05:23.987Z,21.99
2018-09-08T02:06:34.058Z,22.07
2018-09-08T02:07:44.132Z,21.94
2018-09-08T02:08:54.208Z,22.08
2018-09-08T02:10:04.270Z,22.02
2018-09-08T02:11:14.358Z,21.97
2018-09-08T02:12:24.422Z,22.09
2018-09-08T02:13:34.505Z,21.97
2018-09-08T02:14:44.585Z,22.09
2018-09-08T02:15:54.659Z,22.08
2018-09-08T02:17:04.753Z,21.97
2018-09-08T02:18:14.824Z,22.08
2018-09-08T02:19:24.899Z,22.11
2018-09-08T02:20:34.966Z,22.12
2018-09-08T02:21:45.027Z,22.08
2018-09-08T02:22:55.103Z,22.15
2018-09-08T02:24:05.165Z,22.14
2018-09-08T02:25:15.311Z,22.08
2018-09-08T02:26:24.928Z,22.14
2018-09-08T02:27:34.996Z,22.14
2018-09-08T02:28:44.817Z,22.12
2018-09-08T02:29:54.638Z,22.08
2018-09-08T02:31:04.719Z,22.16
2018-09-08T02:32:14.865Z,22.08
2018-09-08T02:33:24.680Z,22.09
2018-09-08T02:34:34.801Z,22.08
2018-09-08T02:35:44.875Z,22.09
2018-09-08T02:36:54.959Z,22.14
2018-09-08T02:38:05.224Z,22.08
2018-09-08T02:39:15.027Z,22.08
2018-09-08T02:40:24.830Z,22.09
2018-09-08T02:41:34.643Z,21.96
2018-09-08T02:42:44.715Z,21.96
2018-09-08T02:43:54.571Z,22.07
2018-09-08T02:45:04.650Z,22.07
2018-09-08T02:46:14.745Z,22.05
2018-09-08T02:47:24.802Z,21.96
2018-09-08T02:48:34.871Z,21.96
2018-09-08T02:49:45.031Z,21.99
2018-09-08T02:50:54.850Z,21.99
2018-09-08T02:52:04.922Z,21.86
2018-09-08T02:53:14.988Z,21.86
2018-09-08T02:54:24.797Z,21.83
2018-09-08T02:55:34.967Z,21.89
2018-09-08T02:56:45.045Z,21.78
2018-09-08T02:57:54.852Z,21.7
2018-09-08T02:59:04.908Z,21.78
2018-09-08T03:00:14.719Z,21.76
2018-09-08T03:01:24.531Z,21.76
2018-09-08T03:02:34.603Z,21.78
2018-09-08T03:35:12.012Z,19.79
2018-09-08T03:36:21.809Z,19.79
2018-09-08T03:37:31.605Z,19.79
2018-09-08T03:38:41.669Z,19.78
2018-09-08T03:39:51.207Z,19.72
2018-09-08T03:41:01.271Z,19.83
2018-09-08T03:42:11.082Z,19.86
2018-09-08T03:43:20.880Z,20.01
2018-09-08T03:44:30.950Z,20.1
2018-09-08T03:45:40.746Z,20.07
2018-09-08T03:46:50.302Z,20.18
2018-09-08T03:48:00.866Z,20.26
2018-09-08T03:49:10.948Z,20.46
2018-09-08T03:50:20.761Z,20.42
2018-09-08T03:51:30.577Z,20.51
2018-09-08T03:52:40.746Z,20.63
2018-09-08T03:53:50.283Z,20.71
2018-09-08T03:55:00.851Z,20.71
2018-09-08T03:56:10.932Z,20.81
2018-09-08T03:57:21.002Z,20.76
2018-09-08T03:58:31.186Z,20.79
2018-09-08T03:59:41.261Z,20.9
2018-09-08T04:00:51.072Z,20.97
2018-09-08T04:02:01.136Z,20.93
2018-09-08T04:03:10.955Z,20.98
2018-09-08T04:04:21.033Z,21.03
2018-09-08T04:05:30.920Z,21.09
2018-09-08T04:06:40.958Z,21.09
2018-09-08T04:07:51.051Z,21.04
2018-09-08T04:09:01.113Z,21.06
2018-09-08T04:10:11.160Z,21.16
2018-09-08T04:11:20.938Z,21.15
2018-09-08T04:12:30.476Z,21.19
2018-09-08T04:13:40.012Z,21.25
2018-09-08T04:14:50.241Z,21.19
2018-09-08T04:16:00.832Z,21.25
2018-09-08T04:17:10.889Z,21.15
2018-09-08T04:18:20.833Z,21.18
2018-09-08T04:19:30.892Z,21.19
2018-09-08T04:20:40.965Z,21.19
2018-09-08T04:21:50.873Z,21.22
2018-09-08T04:23:00.945Z,21.22
2018-09-08T04:24:11.402Z,21.18
2018-09-08T04:25:21.581Z,21.23
2018-09-08T04:26:31.658Z,21.22
2018-09-08T04:27:41.794Z,21.27
2018-09-08T04:28:51.590Z,21.21
2018-09-08T04:30:01.670Z,21.25
2018-09-08T04:31:11.787Z,21.21
2018-09-08T04:32:21.595Z,21.21
2018-09-08T04:33:31.722Z,21.21
2018-09-08T04:34:41.544Z,21.23
2018-09-08T04:35:51.588Z,21.33
2018-09-08T04:37:01.653Z,21.3
2018-09-08T04:38:11.200Z,21.36
2018-09-08T04:39:21.272Z,21.36
2018-09-08T04:40:31.350Z,21.43
2018-09-08T04:41:41.415Z,21.38
2018-09-08T04:42:51.485Z,21.51
2018-09-08T04:44:01.308Z,21.53
2018-09-08T04:45:11.649Z,21.49
2018-09-08T04:46:21.731Z,21.51
2018-09-08T04:47:31.542Z,21.51
2018-09-08T04:48:41.600Z,21.61
2018-09-08T04:49:51.671Z,21.58
2018-09-08T04:51:01.794Z,21.56
2018-09-08T04:52:11.862Z,21.61
2018-09-08T04:53:21.670Z,21.62
2018-09-08T04:54:31.548Z,21.61
2018-09-08T04:55:41.372Z,21.71
2018-09-08T04:56:51.459Z,21.77
2018-09-08T04:58:01.541Z,21.83
2018-09-08T04:59:11.352Z,22
2018-09-08T05:00:20.918Z,22.12
2018-09-08T05:01:30.719Z,22.2
2018-09-08T05:02:40.851Z,22.46
2018-09-08T05:03:50.665Z,22.61
2018-09-08T05:05:00.886Z,22.92
2018-09-08T05:06:10.974Z,22.91
2018-09-08T05:07:21.055Z,22.97
2018-09-08T05:08:31.142Z,23.07
2018-09-08T05:09:41.210Z,23.06
2018-09-08T05:10:51.046Z,23.16
2018-09-08T05:12:01.116Z,23.24
2018-09-08T05:13:11.190Z,23.14
2018-09-08T05:14:21.296Z,23.07
2018-09-08T05:15:31.367Z,23.06
2018-09-08T05:16:41.188Z,23.07
2018-09-08T05:17:51.048Z,22.97
2018-09-08T05:19:01.190Z,23.01
2018-09-08T05:20:11.255Z,23.04
2018-09-08T05:21:21.328Z,23.06
2018-09-08T05:22:31.406Z,23.04
2018-09-08T05:23:41.504Z,23.06
2018-09-08T05:24:51.583Z,23.09
2018-09-08T05:26:01.662Z,23.16
2018-09-08T05:27:11.764Z,23.24
2018-09-08T05:28:21.050Z,23.48
2018-09-08T05:29:30.895Z,23.63
2018-09-08T05:30:40.972Z,23.7
2018-09-08T05:31:51.060Z,23.7
2018-09-08T05:33:00.867Z,23.62
2018-09-08T05:34:10.954Z,23.6
2018-09-08T05:35:21.030Z,23.59
2018-09-08T05:36:31.114Z,23.62
2018-09-08T05:37:41.193Z,23.56
2018-09-08T05:38:51.281Z,23.56
2018-09-08T05:40:01.457Z,23.66
2018-09-08T05:41:11.533Z,23.71
2018-09-08T05:42:21.589Z,23.78
2018-09-08T05:43:31.694Z,23.75
2018-09-08T05:44:41.783Z,23.59
2018-09-08T05:45:51.963Z,23.6
2018-09-08T05:47:02.043Z,23.62
2018-09-08T05:48:11.863Z,23.57
2018-09-08T05:49:21.942Z,23.74
2018-09-08T05:50:32.021Z,23.82
2018-09-08T05:51:42.112Z,23.79
2018-09-08T05:52:52.185Z,23.75
2018-09-08T05:54:02.280Z,23.72
2018-09-08T05:55:12.385Z,23.63
2018-09-08T05:56:22.462Z,23.75
2018-09-08T05:57:32.547Z,23.71
2018-09-08T05:58:42.682Z,23.75
2018-09-08T05:59:52.775Z,23.66
2018-09-08T06:01:03.059Z,23.63
2018-09-08T06:02:13.147Z,23.66
2018-09-08T06:03:22.960Z,23.62
2018-09-08T06:04:32.773Z,23.63
2018-09-08T06:05:42.852Z,23.63
2018-09-08T06:06:52.988Z,23.66
2018-09-08T06:08:03.094Z,23.6
2018-09-08T06:09:13.179Z,23.64
2018-09-08T06:10:23.758Z,23.64
2018-09-08T06:11:34.017Z,23.66
2018-09-08T06:12:44.074Z,23.64
2018-09-08T06:13:54.178Z,23.63
2018-09-08T06:15:03.997Z,23.7
2018-09-08T06:16:14.180Z,23.56
2018-09-08T06:17:24.301Z,23.62
2018-09-08T06:18:34.544Z,23.63
2018-09-08T06:19:44.528Z,23.64
2018-09-08T06:20:54.841Z,23.64
2018-09-08T06:22:05.113Z,23.79
2018-09-08T06:23:15.213Z,23.81
2018-09-08T06:24:25.433Z,23.87
2018-09-08T06:25:35.534Z,23.89
2018-09-08T06:26:45.705Z,24.08
2018-09-08T06:27:55.794Z,24
2018-09-08T06:29:06.141Z,24.15
2018-09-08T06:30:15.995Z,24.29
2018-09-08T06:31:26.067Z,24.45
2018-09-08T06:32:36.171Z,24.63
2018-09-08T06:33:46.466Z,24.71
2018-09-08T06:34:56.715Z,24.74
2018-09-08T06:36:06.860Z,24.86
2018-09-08T06:37:16.941Z,24.86
2018-09-08T06:38:27.019Z,25.08
2018-09-08T06:39:37.115Z,25.12
2018-09-08T06:40:47.207Z,25.17
2018-09-08T06:41:57.297Z,25.29
2018-09-08T06:43:07.330Z,25.24
2018-09-08T06:44:17.411Z,25.23
2018-09-08T06:45:27.535Z,25.3
2018-09-08T06:46:37.363Z,25.29
2018-09-08T06:47:47.444Z,25.27
2018-09-08T06:48:57.521Z,25.33
2018-09-08T06:50:07.619Z,25.37
2018-09-08T06:51:17.713Z,25.42
2018-09-08T06:52:27.793Z,25.37
2018-09-08T06:53:37.879Z,25.41
2018-09-08T06:54:47.965Z,25.44
2018-09-08T06:55:58.045Z,25.34
2018-09-08T06:57:08.116Z,25.41
2018-09-08T06:58:18.208Z,25.41
2018-09-08T06:59:27.754Z,25.41
2018-09-08T07:00:37.573Z,25.42
2018-09-08T07:01:47.682Z,25.45
2018-09-08T07:02:57.841Z,25.42
2018-09-08T07:04:07.861Z,25.3
2018-09-08T07:05:17.682Z,25.26
2018-09-08T07:06:27.778Z,25.24
2018-09-08T07:07:37.853Z,25.34
2018-09-08T07:08:47.992Z,25.39
2018-09-08T07:09:58.089Z,25.32
2018-09-08T07:11:08.377Z,25.39
2018-09-08T07:12:18.196Z,25.47
2018-09-08T07:13:28.283Z,25.44
2018-09-08T07:14:38.162Z,25.47
2018-09-08T07:15:48.224Z,25.56
2018-09-08T07:16:58.318Z,25.62
2018-09-08T07:18:08.505Z,25.76
2018-09-08T07:19:18.590Z,25.82
2018-09-08T07:20:28.663Z,25.91
2018-09-08T07:21:38.765Z,25.94
2018-09-08T07:22:48.587Z,26.04
2018-09-08T07:23:58.684Z,26.19
2018-09-08T07:25:08.992Z,26.3
2018-09-08T07:26:19.151Z,26.38
2018-09-08T07:27:28.993Z,26.41
2018-09-08T07:28:38.833Z,26.42
2018-09-08T07:29:48.654Z,26.63
2018-09-08T07:30:58.857Z,26.64
2018-09-08T07:32:08.934Z,26.67
2018-09-08T07:33:19.016Z,26.68
2018-09-08T07:34:28.835Z,26.64
2018-09-08T07:35:38.933Z,26.61
2018-09-08T07:36:49.059Z,26.61
2018-09-08T07:37:58.979Z,26.56
2018-09-08T07:39:09.082Z,26.47
2018-09-08T07:40:18.963Z,26.44
2018-09-08T07:41:28.976Z,26.45
2018-09-08T07:42:39.200Z,26.42
2018-09-08T07:43:49.159Z,26.45
2018-09-08T07:44:59.253Z,26.49
2018-09-08T07:46:09.582Z,26.44
2018-09-08T07:47:19.176Z,26.47
2018-09-08T07:48:29.317Z,26.39
2018-09-08T07:49:39.476Z,26.44
2018-09-08T07:50:49.576Z,26.38
2018-09-08T07:51:59.680Z,26.42
2018-09-08T07:53:09.891Z,26.37
2018-09-08T07:54:20.285Z,26.38
2018-09-08T07:55:30.509Z,26.41
2018-09-08T07:56:40.623Z,26.42
2018-09-08T07:57:50.736Z,26.44
2018-09-08T07:59:00.581Z,26.39
2018-09-08T08:00:10.685Z,26.38
2018-09-08T08:01:21.853Z,26.38
2018-09-08T08:02:31.948Z,26.37
2018-09-08T08:03:41.784Z,26.27
2018-09-08T08:04:51.875Z,26.35
2018-09-08T08:06:01.985Z,26.41
2018-09-08T08:07:12.138Z,26.3
2018-09-08T08:08:22.260Z,26.3
2018-09-08T08:09:32.371Z,26.27
2018-09-08T08:10:42.464Z,26.24
2018-09-08T08:11:52.588Z,26.15
2018-09-08T08:13:02.783Z,26.27
2018-09-08T08:14:12.879Z,26.16
2018-09-08T08:15:22.983Z,26.16
2018-09-08T08:16:33.080Z,26.11
2018-09-08T08:17:43.202Z,26.19
2018-09-08T08:18:53.084Z,26.06
2018-09-08T08:20:02.651Z,26.03
2018-09-08T08:21:12.779Z,26
2018-09-08T08:22:22.870Z,26.15
2018-09-08T08:23:32.965Z,26.15
2018-09-08T08:24:43.053Z,26.15
2018-09-08T08:25:53.157Z,26.22
2018-09-08T08:27:02.997Z,26.22
2018-09-08T08:28:13.829Z,26.23
2018-09-08T08:29:23.938Z,26.3
2018-09-08T08:30:34.089Z,26.24
2018-09-08T08:31:44.201Z,26.27
2018-09-08T08:32:54.037Z,26.3
2018-09-08T08:34:04.139Z,26.44
2018-09-08T08:35:14.192Z,26.45
2018-09-08T08:36:24.336Z,26.45
2018-09-08T08:37:34.456Z,26.53
2018-09-08T08:38:44.551Z,26.61
2018-09-08T08:39:54.365Z,26.67
2018-09-08T08:41:04.491Z,26.67
2018-09-08T08:42:14.649Z,26.72
2018-09-08T08:43:25.294Z,26.75
2018-09-08T08:44:35.464Z,26.74
2018-09-08T08:45:45.548Z,26.71
2018-09-08T08:46:55.625Z,26.68
2018-09-08T08:48:05.713Z,26.74
2018-09-08T08:49:15.817Z,26.72
2018-09-08T08:50:25.393Z,26.67
2018-09-08T08:51:35.235Z,26.67
2018-09-08T08:52:45.788Z,26.68
2018-09-08T08:53:55.937Z,26.75
2018-09-08T08:55:06.029Z,26.69
2018-09-08T08:56:15.909Z,26.75
2018-09-08T08:57:26.004Z,26.76
2018-09-08T08:58:35.931Z,26.81
2018-09-08T08:59:45.747Z,26.82
2018-09-08T09:00:55.318Z,26.97
2018-09-08T09:02:05.740Z,26.81
2018-09-08T09:03:15.839Z,26.99
2018-09-08T09:04:25.953Z,26.91
2018-09-08T09:05:36.067Z,27
2018-09-08T09:06:46.152Z,27
2018-09-08T09:07:56.221Z,27.11
2018-09-08T09:09:06.115Z,27.19
2018-09-08T09:10:16.684Z,27.27
2018-09-08T09:11:26.855Z,27.28
2018-09-08T09:12:37.994Z,27.42
2018-09-08T09:13:47.619Z,27.48
2018-09-08T09:14:57.708Z,27.16
2018-09-08T09:16:08.401Z,27.23
2018-09-08T09:17:18.502Z,27.23
2018-09-08T09:18:28.759Z,27.34
2018-09-08T09:19:40.304Z,27.41
2018-09-08T09:20:50.192Z,27.57
2018-09-08T09:22:00.361Z,27.55
2018-09-08T09:23:11.226Z,27.66
2018-09-08T09:24:23.715Z,27.71
2018-09-08T09:25:35.189Z,27.81
2018-09-08T09:26:45.018Z,27.8
2018-09-08T09:27:55.139Z,27.87
2018-09-08T09:29:05.788Z,28.03
2018-09-08T09:30:15.896Z,28.09
2018-09-08T09:31:26.001Z,28.14
2018-09-08T09:32:36.089Z,28.18
2018-09-08T09:33:46.198Z,28.11
2018-09-08T09:34:56.320Z,28.11
2018-09-08T09:36:06.423Z,28.17
2018-09-08T09:37:16.625Z,28.11
2018-09-08T09:38:27.013Z,28.14
2018-09-08T09:39:36.842Z,28.17
2018-09-08T09:40:46.978Z,28.17
2018-09-08T09:41:57.103Z,28.2
2018-09-08T09:43:07.206Z,28.31
2018-09-08T09:44:17.077Z,28.28
2018-09-08T09:45:27.126Z,28.42
2018-09-08T09:46:37.003Z,28.43
2018-09-08T09:47:46.821Z,28.46
2018-09-08T09:48:56.950Z,28.43
2018-09-08T09:50:07.061Z,28.43
2018-09-08T09:51:16.874Z,28.41
2018-09-08T09:52:27.026Z,28.48
2018-09-08T09:53:37.132Z,28.31
2018-09-08T09:54:47.212Z,28.33
2018-09-08T09:55:57.357Z,28.41
2018-09-08T09:57:07.708Z,28.43
2018-09-08T09:58:17.821Z,28.39
2018-09-08T09:59:27.918Z,28.36
2018-09-08T10:00:38.019Z,28.43
2018-09-08T10:01:48.126Z,28.43
2018-09-08T10:02:58.221Z,28.46
2018-09-08T10:04:08.329Z,28.54
2018-09-08T10:05:18.428Z,28.63
2018-09-08T10:06:28.625Z,28.63
2018-09-08T10:07:38.937Z,28.46
2018-09-08T10:08:49.046Z,28.28
2018-09-08T10:09:59.400Z,28.35
2018-09-08T10:11:09.499Z,28.18
2018-09-08T10:12:19.449Z,28.11
2018-09-08T10:13:29.288Z,27.99
2018-09-08T10:14:39.700Z,27.99
2018-09-08T10:15:49.900Z,28.16
2018-09-08T10:16:59.733Z,28.23
2018-09-08T10:18:09.845Z,28.41
2018-09-08T10:19:19.958Z,28.43
2018-09-08T10:20:30.324Z,28.46
2018-09-08T10:21:40.207Z,28.49
2018-09-08T10:22:50.323Z,28.53
2018-09-08T10:24:10.428Z,28.63
2018-09-08T10:25:20.245Z,28.82
2018-09-08T10:26:30.615Z,28.83
2018-09-08T10:27:40.776Z,29.02
2018-09-08T10:28:50.888Z,29.21
2018-09-08T10:30:01.865Z,29.28
2018-09-08T10:31:12.872Z,29.3
2018-09-08T10:32:23.275Z,29.32
2018-09-08T10:33:33.095Z,29.32
2018-09-08T10:34:43.318Z,29.24
2018-09-08T10:35:53.613Z,29.17
2018-09-08T10:37:03.716Z,29.29
2018-09-08T10:38:14.089Z,29.26
2018-09-08T10:39:24.200Z,29.36
2018-09-08T10:40:34.022Z,29.47
2018-09-08T10:41:44.121Z,29.43
2018-09-08T10:42:54.216Z,29.55
2018-09-08T10:44:04.037Z,29.69
2018-09-08T10:45:14.146Z,29.58
2018-09-08T10:46:23.722Z,29.55
2018-09-08T10:47:33.828Z,29.5
2018-09-08T10:48:43.943Z,29.48
2018-09-08T10:49:53.831Z,29.42
2018-09-08T10:51:04.137Z,29.47
2018-09-08T10:52:13.768Z,29.51
2018-09-08T10:53:23.593Z,29.55
2018-09-08T10:54:33.935Z,29.39
2018-09-08T10:55:44.036Z,29.28
2018-09-08T10:56:54.158Z,29.3
2018-09-08T10:58:03.992Z,29.43
2018-09-08T10:59:14.144Z,29.55
2018-09-08T11:00:24.245Z,29.65
2018-09-08T11:01:34.968Z,29.92
2018-09-08T11:02:46.918Z,30
2018-09-08T11:03:58.375Z,30.14
2018-09-08T11:05:08.488Z,30.4
2018-09-08T11:06:18.338Z,30.52
2018-09-08T11:07:28.438Z,30.54
2018-09-08T11:08:38.283Z,30.49
2018-09-08T11:09:48.359Z,30.54
2018-09-08T11:10:58.201Z,30.64
2018-09-08T11:12:08.153Z,30.71
2018-09-08T11:13:18.239Z,30.93
2018-09-08T11:14:28.354Z,31.03
2018-09-08T11:15:38.432Z,31.16
2018-09-08T11:16:48.565Z,31.28
2018-09-08T11:17:58.651Z,31.19
2018-09-08T11:19:08.828Z,31.22
2018-09-08T11:20:18.925Z,30.99
2018-09-08T11:21:28.767Z,31
2018-09-08T11:22:38.880Z,30.75
2018-09-08T11:23:49.022Z,30.39
2018-09-08T11:24:58.897Z,30.16
2018-09-08T11:26:08.989Z,30.26
2018-09-08T11:27:18.824Z,30.47
2018-09-08T11:28:28.649Z,30.66
2018-09-08T11:29:38.755Z,30.81
2018-09-08T11:30:49.059Z,30.96
2018-09-08T11:31:59.146Z,31.06
2018-09-08T11:33:09.244Z,31.13
2018-09-08T11:34:19.323Z,31.03
2018-09-08T11:35:29.161Z,31.21
2018-09-08T11:36:39.308Z,31.18
2018-09-08T11:37:49.392Z,31.31
2018-09-08T11:38:59.566Z,31.43
2018-09-08T11:40:09.650Z,31.37
2018-09-08T11:41:19.207Z,31.3
2018-09-08T11:42:29.024Z,31.28
2018-09-08T11:43:39.168Z,31.33
2018-09-08T11:44:49.199Z,31.33
2018-09-08T11:45:59.431Z,31.4
2018-09-08T11:47:09.538Z,31.47
2018-09-08T11:48:19.688Z,31.6
2018-09-08T11:49:30.289Z,31.75
2018-09-08T11:50:40.157Z,31.8
2018-09-08T11:51:50.261Z,31.9
2018-09-08T11:53:00.076Z,31.95
2018-09-08T11:54:10.404Z,32.09
2018-09-08T11:55:20.495Z,32.25
2018-09-08T11:56:30.600Z,32.25
2018-09-08T11:57:40.704Z,32.1
2018-09-08T11:58:50.805Z,31.47
2018-09-08T12:00:00.963Z,31.16
2018-09-08T12:01:11.078Z,30.75
2018-09-08T12:02:21.543Z,30.45
2018-09-08T12:03:31.636Z,30.22
2018-09-08T12:04:41.488Z,30.03
2018-09-08T12:05:51.816Z,30.18
2018-09-08T12:07:01.935Z,30.51
2018-09-08T12:08:12.370Z,30.79
2018-09-08T12:09:22.541Z,30.93
2018-09-08T12:10:32.684Z,31.16
2018-09-08T12:11:42.877Z,31.31
2018-09-08T12:12:52.743Z,31.41
2018-09-08T12:14:03.209Z,31.6
2018-09-08T12:15:13.391Z,31.77
2018-09-08T12:16:23.494Z,31.81
2018-09-08T12:17:33.844Z,31.98
2018-09-08T12:18:43.970Z,32.01
2018-09-08T12:19:54.054Z,32.01
2018-09-08T12:21:04.144Z,31.94
2018-09-08T12:22:14.261Z,31.95
2018-09-08T12:23:24.798Z,31.97
2018-09-08T12:24:34.896Z,31.94
2018-09-08T12:25:44.728Z,31.97
2018-09-08T12:26:54.562Z,31.98
2018-09-08T12:28:04.652Z,31.74
2018-09-08T12:29:14.797Z,31.6
2018-09-08T12:30:25.047Z,31.18
2018-09-08T12:31:35.364Z,30.77
2018-09-08T12:32:45.487Z,30.54
2018-09-08T12:33:55.590Z,30.32
2018-09-08T12:35:05.920Z,30.39
2018-09-08T12:36:16.004Z,30.7
2018-09-08T12:37:26.147Z,31.03
2018-09-08T12:38:36.376Z,31.25
2018-09-08T12:39:46.521Z,31.3
2018-09-08T12:40:56.662Z,31.3
2018-09-08T12:42:06.481Z,31.33
2018-09-08T12:43:16.577Z,31.31
2018-09-08T12:44:26.409Z,31.26
2018-09-08T12:45:36.250Z,31.25
2018-09-08T12:46:46.101Z,31.28
2018-09-08T12:47:55.970Z,31.12
2018-09-08T12:49:06.056Z,30.91
2018-09-08T12:50:16.188Z,30.73
2018-09-08T12:51:26.316Z,30.66
2018-09-08T12:52:36.217Z,30.71
2018-09-08T12:53:46.337Z,30.88
2018-09-08T12:54:56.440Z,30.89
2018-09-08T12:56:06.546Z,31
2018-09-08T12:57:16.698Z,31.1
2018-09-08T12:58:26.793Z,31.25
2018-09-08T12:59:36.975Z,31.41
2018-09-08T13:00:47.162Z,31.43
2018-09-08T13:01:57.259Z,31.47
2018-09-08T13:03:07.081Z,31.45
2018-09-08T13:04:17.250Z,31.44
2018-09-08T13:05:27.105Z,31.26
2018-09-08T13:06:37.188Z,31.23
2018-09-08T13:07:47.556Z,31.16
2018-09-08T13:08:57.818Z,31.07
2018-09-08T13:10:08.616Z,30.97
2018-09-08T13:11:18.751Z,30.99
2018-09-08T13:12:28.370Z,30.94
2018-09-08T13:13:38.472Z,30.86
2018-09-08T13:14:48.309Z,30.85
2018-09-08T13:15:58.383Z,30.81
2018-09-08T13:17:08.498Z,30.85
2018-09-08T13:18:17.812Z,30.79
2018-09-08T13:19:27.910Z,30.84
2018-09-08T13:20:37.765Z,30.78
2018-09-08T13:21:47.924Z,30.82
2018-09-08T13:22:58.025Z,30.79
2018-09-08T13:24:08.963Z,30.75
2018-09-08T13:25:19.132Z,30.71
2018-09-08T13:26:28.977Z,30.69
2018-09-08T13:27:38.817Z,30.6
2018-09-08T13:28:48.645Z,30.62
2018-09-08T13:29:58.748Z,30.57
2018-09-08T13:31:08.848Z,30.64
2018-09-08T13:32:18.943Z,30.37
2018-09-08T13:33:29.040Z,30.19
2018-09-08T13:34:39.394Z,30.22
2018-09-08T13:35:49.531Z,30.4
2018-09-08T13:36:59.629Z,30.48
2018-09-08T13:38:09.455Z,30.45
2018-09-08T13:39:19.611Z,30.44
2018-09-08T13:40:29.839Z,30.51
2018-09-08T13:41:39.916Z,30.29
2018-09-08T13:42:49.757Z,30.26
2018-09-08T13:43:59.852Z,30.29
2018-09-08T13:45:10.013Z,30.31
2018-09-08T13:46:20.133Z,30.28
2018-09-08T13:47:30.096Z,30.39
2018-09-08T13:48:39.976Z,30.42
2018-09-08T13:49:49.820Z,30.34
2018-09-08T13:50:59.705Z,30.48
2018-09-08T13:52:09.805Z,30.39
2018-09-08T13:53:19.922Z,30.34
2018-09-08T13:54:30.008Z,30.19
2018-09-08T13:55:39.578Z,30.04
2018-09-08T13:56:49.138Z,30.11
2018-09-08T13:57:59.241Z,30.18
2018-09-08T13:59:09.343Z,30.26
2018-09-08T14:00:19.428Z,30.37
2018-09-08T14:01:29.548Z,30.31
2018-09-08T14:02:39.438Z,30.26
2018-09-08T14:03:49.320Z,30.16
2018-09-08T14:04:59.124Z,30.16
2018-09-08T14:06:09.224Z,30.1
2018-09-08T14:07:19.068Z,30.03
2018-09-08T14:08:29.202Z,30.13
2018-09-08T14:09:39.308Z,30.1
2018-09-08T14:10:49.398Z,30.06
2018-09-08T14:11:59.528Z,30.07
2018-09-08T14:13:09.623Z,30.18
2018-09-08T14:14:19.732Z,30.14
2018-09-08T14:15:30.135Z,30.14
2018-09-08T14:16:40.302Z,30.13
2018-09-08T14:17:50.415Z,30.09
2018-09-08T14:19:00.512Z,30.09
2018-09-08T14:20:10.641Z,30.09
2018-09-08T14:21:20.199Z,30.03
2018-09-08T14:22:30.321Z,30.04
2018-09-08T14:23:40.444Z,30.09
2018-09-08T14:24:50.564Z,30.02
2018-09-08T14:26:00.765Z,30.02
2018-09-08T14:27:10.869Z,29.89
2018-09-08T14:28:20.716Z,29.94
2018-09-08T14:29:30.585Z,29.95
2018-09-08T14:30:40.431Z,29.91
2018-09-08T14:31:50.333Z,29.89
2018-09-08T14:33:00.425Z,29.92
2018-09-08T14:34:10.535Z,29.94
2018-09-08T14:35:20.627Z,29.87
2018-09-08T14:36:30.443Z,29.91
2018-09-08T14:37:40.638Z,29.91
2018-09-08T14:38:50.744Z,29.89
2018-09-08T14:40:00.565Z,29.91
2018-09-08T14:41:10.637Z,29.92
2018-09-08T14:42:20.800Z,29.91
2018-09-08T14:43:30.723Z,29.77
2018-09-08T14:44:40.572Z,29.79
2018-09-08T14:45:50.674Z,29.76
2018-09-08T14:47:00.842Z,29.79
2018-09-08T14:48:10.932Z,29.76
2018-09-08T14:49:20.763Z,29.72
2018-09-08T14:50:30.610Z,29.72
2018-09-08T14:51:40.731Z,29.75
2018-09-08T14:52:51.037Z,29.69
2018-09-08T14:54:01.379Z,29.61
2018-09-08T14:55:11.542Z,29.63
2018-09-08T14:56:21.630Z,29.61
2018-09-08T14:57:31.477Z,29.51
2018-09-08T14:58:41.584Z,29.54
2018-09-08T14:59:51.693Z,29.57
2018-09-08T15:01:01.800Z,29.5
2018-09-08T15:02:11.920Z,29.45
2018-09-08T15:03:22.030Z,29.42
2018-09-08T15:04:32.708Z,29.35
2018-09-08T15:05:42.645Z,29.36
2018-09-08T15:06:52.772Z,29.32
2018-09-08T15:08:02.893Z,29.2
2018-09-08T15:09:13.006Z,29.32
2018-09-08T15:10:22.864Z,29.29
2018-09-08T15:11:32.991Z,29.23
2018-09-08T15:12:43.387Z,29.29
2018-09-08T15:13:53.482Z,29.23
2018-09-08T15:15:03.560Z,29.17
2018-09-08T15:16:13.719Z,29.11
2018-09-08T15:17:23.296Z,29.05
2018-09-08T15:18:33.447Z,29.06
2018-09-08T15:19:43.398Z,29.06
2018-09-08T15:20:53.507Z,29.06
2018-09-08T15:22:03.596Z,29.08
2018-09-08T15:23:13.683Z,29.06
2018-09-08T15:24:23.982Z,29.05
2018-09-08T15:25:34.334Z,28.98
2018-09-08T15:26:44.426Z,28.91
2018-09-08T15:27:54.532Z,28.97
2018-09-08T15:29:04.646Z,28.86
2018-09-08T15:30:14.768Z,28.9
2018-09-08T15:31:24.918Z,28.83
2018-09-08T15:32:35.219Z,28.82
2018-09-08T15:33:45.410Z,28.73
2018-09-08T15:34:55.512Z,28.75
2018-09-08T15:36:06.204Z,28.65
2018-09-08T15:37:16.320Z,28.7